createdAt,value
2023-10-25T00:00:03.345Z,46.06
2023-10-25T00:02:48.886Z,46.26
2023-10-25T00:05:34.208Z,46.19
2023-10-25T00:08:19.765Z,46.11
2023-10-25T00:11:04.773Z,46.16
2023-10-25T00:13:49.646Z,45.79
2023-10-25T00:16:34.741Z,45.83
2023-10-25T00:19:20.149Z,45.85
2023-10-25T00:22:05.056Z,45.40
2023-10-25T00:24:50.583Z,45.64
2023-10-25T00:27:35.995Z,45.75
2023-10-25T00:30:21.367Z,45.76
2023-10-25T00:33:06.466Z,45.98
2023-10-25T00:35:51.992Z,45.65
2023-10-25T00:38:36.999Z,45.76
2023-10-25T00:41:22.593Z,45.70
2023-10-25T00:44:07.560Z,45.63
2023-10-25T00:46:52.635Z,45.45
2023-10-25T00:49:38.110Z,45.31
2023-10-25T00:52:23.275Z,45.45
2023-10-25T00:55:08.722Z,45.25
2023-10-25T00:57:54.108Z,45.44
2023-10-25T01:00:39.730Z,45.36
2023-10-25T01:03:25.150Z,45.30
2023-10-25T01:06:10.724Z,45.07
2023-10-25T01:08:55.954Z,45.12
2023-10-25T01:11:41.165Z,45.18
2023-10-25T01:14:26.630Z,45.17
2023-10-25T01:17:11.719Z,45.24
2023-10-25T01:19:57.165Z,45.38
2023-10-25T01:22:42.203Z,45.25
2023-10-25T01:25:27.459Z,45.29
2023-10-25T01:28:12.450Z,45.10
2023-10-25T01:30:58.115Z,45.12
2023-10-25T01:33:43.679Z,45.09
2023-10-25T01:36:28.979Z,44.97
2023-10-25T01:39:14.068Z,44.93
2023-10-25T01:41:58.943Z,45.05
2023-10-25T01:44:44.540Z,45.13
2023-10-25T01:47:30.133Z,45.31
2023-10-25T01:50:15.764Z,45.21
2023-10-25T01:53:00.780Z,45.46
2023-10-25T01:55:46.315Z,45.04
2023-10-25T01:58:31.308Z,44.88
2023-10-25T02:01:16.489Z,44.89
2023-10-25T02:04:02.083Z,45.08
2023-10-25T02:06:47.472Z,45.25
2023-10-25T02:09:32.789Z,44.86
2023-10-25T02:12:17.912Z,45.23
2023-10-25T02:15:02.802Z,45.14
2023-10-25T02:17:48.442Z,45.26
2023-10-25T02:20:33.781Z,44.86
2023-10-25T02:23:18.687Z,45.35
2023-10-25T02:26:03.768Z,44.94
2023-10-25T02:28:49.306Z,45.53
2023-10-25T02:31:34.474Z,45.71
2023-10-25T02:34:19.898Z,45.64
2023-10-25T02:37:05.562Z,45.36
2023-10-25T02:39:50.862Z,45.02
2023-10-25T02:42:36.251Z,45.06
2023-10-25T02:45:21.408Z,45.28
2023-10-25T02:48:06.797Z,45.50
2023-10-25T02:50:51.862Z,45.13
2023-10-25T02:53:36.893Z,45.45
2023-10-25T02:56:21.885Z,45.01
2023-10-25T02:59:06.976Z,45.14
2023-10-25T03:01:52.543Z,45.41
2023-10-25T03:04:37.915Z,45.12
2023-10-25T03:07:23.294Z,45.51
2023-10-25T03:10:08.495Z,45.35
2023-10-25T03:12:53.990Z,44.80
2023-10-25T03:15:39.594Z,45.00
2023-10-25T03:18:25.080Z,45.14
2023-10-25T03:21:10.582Z,45.21
2023-10-25T03:23:55.988Z,45.15
2023-10-25T03:26:41.462Z,45.41
2023-10-25T03:29:26.353Z,45.11
2023-10-25T03:32:11.332Z,45.25
2023-10-25T03:34:56.795Z,45.23
2023-10-25T03:37:41.830Z,45.74
2023-10-25T03:40:27.204Z,45.42
2023-10-25T03:43:12.762Z,45.25
2023-10-25T03:45:58.170Z,45.05
2023-10-25T03:48:43.633Z,45.07
2023-10-25T03:51:29.143Z,45.49
2023-10-25T03:54:14.229Z,45.30
2023-10-25T03:56:59.090Z,45.39
2023-10-25T03:59:44.299Z,44.89
2023-10-25T04:02:29.628Z,45.21
2023-10-25T04:05:14.828Z,45.43
2023-10-25T04:08:00.257Z,45.33
2023-10-25T04:10:45.325Z,44.95
2023-10-25T04:13:30.258Z,45.06
2023-10-25T04:16:15.590Z,44.99
2023-10-25T04:19:00.829Z,45.71
2023-10-25T04:21:46.292Z,45.54
2023-10-25T04:24:31.904Z,45.41
2023-10-25T04:27:17.362Z,45.72
2023-10-25T04:30:05.368Z,45.80
2023-10-25T04:32:52.010Z,45.92
2023-10-25T04:35:37.298Z,45.71
2023-10-25T04:38:22.234Z,45.47
2023-10-25T04:41:07.698Z,45.57
2023-10-25T04:43:53.022Z,45.41
2023-10-25T04:46:38.467Z,45.50
2023-10-25T04:49:23.897Z,45.46
2023-10-25T04:52:09.475Z,45.46
2023-10-25T04:54:54.873Z,45.54
2023-10-25T04:57:40.232Z,45.43
2023-10-25T05:00:25.149Z,45.58
2023-10-25T05:03:10.765Z,45.81
2023-10-25T05:05:56.018Z,45.33
2023-10-25T05:08:40.993Z,45.46
2023-10-25T05:11:26.074Z,45.65
2023-10-25T05:14:10.966Z,45.23
2023-10-25T05:16:56.081Z,45.55
2023-10-25T05:19:41.701Z,45.52
2023-10-25T05:22:26.734Z,45.74
2023-10-25T05:25:12.333Z,45.57
2023-10-25T05:27:57.626Z,45.93
2023-10-25T05:30:43.288Z,46.09
2023-10-25T05:33:28.610Z,46.63
2023-10-25T05:36:13.829Z,47.93
2023-10-25T05:38:58.638Z,49.77
2023-10-25T05:41:44.365Z,48.48
2023-10-25T05:44:29.729Z,49.27
2023-10-25T05:47:14.616Z,51.02
2023-10-25T05:49:59.664Z,52.39
2023-10-25T05:52:44.689Z,53.50
2023-10-25T05:55:29.582Z,53.87
2023-10-25T05:58:14.527Z,53.63
2023-10-25T06:01:00.059Z,53.43
2023-10-25T06:03:45.504Z,53.58
2023-10-25T06:06:30.841Z,53.24
2023-10-25T06:09:15.921Z,53.35
2023-10-25T06:12:01.270Z,53.08
2023-10-25T06:14:46.867Z,53.15
2023-10-25T06:17:31.842Z,52.73
2023-10-25T06:20:17.289Z,52.85
2023-10-25T06:23:02.826Z,52.95
2023-10-25T06:25:48.308Z,52.86
2023-10-25T06:28:33.913Z,53.29
2023-10-25T06:31:19.000Z,52.32
2023-10-25T06:34:09.081Z,52.62
2023-10-25T06:36:55.347Z,52.83
2023-10-25T06:39:40.818Z,52.84
2023-10-25T06:42:25.704Z,52.74
2023-10-25T06:45:11.229Z,53.19
2023-10-25T06:47:56.206Z,52.87
2023-10-25T06:50:41.755Z,52.67
2023-10-25T06:53:26.705Z,53.96
2023-10-25T06:56:12.432Z,54.27
2023-10-25T06:58:57.791Z,54.35
2023-10-25T07:01:42.937Z,54.99
2023-10-25T07:04:28.435Z,55.79
2023-10-25T07:07:13.908Z,56.00
2023-10-25T07:12:44.883Z,56.35
2023-10-25T07:15:30.883Z,56.10
2023-10-25T07:18:16.380Z,56.15
2023-10-25T07:21:01.825Z,56.39
2023-10-25T07:23:46.700Z,56.22
2023-10-25T07:26:31.481Z,56.42
2023-10-25T07:29:16.823Z,56.23
2023-10-25T07:32:02.178Z,56.00
2023-10-25T07:34:47.646Z,55.88
2023-10-25T07:37:32.577Z,55.64
2023-10-25T07:40:17.989Z,55.26
2023-10-25T07:43:03.408Z,55.31
2023-10-25T07:45:48.904Z,55.32
2023-10-25T07:48:34.102Z,54.90
2023-10-25T07:51:19.022Z,55.16
2023-10-25T07:54:04.499Z,55.26
2023-10-25T07:59:37.421Z,54.59
2023-10-25T08:02:22.672Z,54.48
2023-10-25T08:05:10.585Z,54.52
2023-10-25T08:07:55.967Z,54.38
2023-10-25T08:10:41.064Z,54.27
2023-10-25T08:13:26.127Z,54.01
2023-10-25T08:16:11.715Z,54.04
2023-10-25T08:18:57.282Z,53.33
2023-10-25T08:21:42.693Z,52.92
2023-10-25T08:24:27.705Z,52.85
2023-10-25T08:27:13.155Z,53.02
2023-10-25T08:29:58.138Z,53.68
2023-10-25T08:32:43.768Z,53.25
2023-10-25T08:35:29.164Z,52.79
2023-10-25T08:38:14.773Z,52.69
2023-10-25T08:41:00.567Z,52.96
2023-10-25T08:43:46.034Z,52.84
2023-10-25T08:46:31.629Z,52.85
2023-10-25T08:49:17.148Z,52.44
2023-10-25T08:52:02.746Z,52.86
2023-10-25T08:54:48.274Z,53.10
2023-10-25T08:57:33.868Z,52.29
2023-10-25T09:00:19.773Z,52.41
2023-10-25T09:03:05.263Z,52.25
2023-10-25T09:05:52.645Z,51.98
2023-10-25T09:08:39.822Z,51.48
2023-10-25T09:11:25.269Z,52.44
2023-10-25T09:14:10.904Z,52.45
2023-10-25T09:16:56.349Z,51.86
2023-10-25T09:19:42.135Z,51.81
2023-10-25T09:22:28.028Z,51.12
2023-10-25T09:25:13.550Z,51.34
2023-10-25T09:27:59.078Z,51.99
2023-10-25T09:30:44.765Z,51.83
2023-10-25T09:33:30.720Z,51.32
2023-10-25T09:36:16.067Z,51.30
2023-10-25T09:39:01.154Z,51.38
2023-10-25T09:41:47.528Z,52.00
2023-10-25T09:44:34.757Z,51.84
2023-10-25T09:47:19.700Z,52.48
2023-10-25T09:50:05.271Z,52.57
2023-10-25T09:52:50.684Z,52.76
2023-10-25T09:55:36.353Z,52.80
2023-10-25T09:58:22.066Z,53.30
2023-10-25T10:01:07.636Z,53.48
2023-10-25T10:03:53.304Z,53.18
2023-10-25T10:06:38.549Z,53.68
2023-10-25T10:09:24.226Z,53.04
2023-10-25T10:12:10.576Z,53.38
2023-10-25T10:14:56.767Z,53.67
2023-10-25T10:17:42.506Z,53.28
2023-10-25T10:20:27.918Z,52.68
2023-10-25T10:23:13.511Z,52.73
2023-10-25T10:25:58.898Z,52.01
2023-10-25T10:28:44.560Z,51.83
2023-10-25T10:31:30.036Z,50.58
2023-10-25T10:34:15.207Z,50.31
2023-10-25T10:37:00.531Z,49.14
2023-10-25T10:39:46.037Z,48.72
2023-10-25T10:42:31.421Z,48.14
2023-10-25T10:45:17.152Z,48.77
2023-10-25T10:48:02.842Z,47.91
2023-10-25T10:50:48.315Z,46.80
2023-10-25T10:53:33.734Z,46.29
2023-10-25T10:56:19.148Z,48.05
2023-10-25T10:59:04.759Z,46.78
2023-10-25T11:01:50.307Z,47.48
2023-10-25T11:04:35.931Z,46.98
2023-10-25T11:07:21.236Z,45.72
2023-10-25T11:10:06.666Z,46.04
2023-10-25T11:12:52.272Z,46.51
2023-10-25T11:15:37.725Z,46.79
2023-10-25T11:18:23.276Z,46.63
2023-10-25T11:21:08.832Z,46.77
2023-10-25T11:23:54.369Z,46.78
2023-10-25T11:26:39.817Z,47.82
2023-10-25T11:29:25.191Z,48.05
2023-10-25T11:32:10.825Z,47.06
2023-10-25T11:34:56.446Z,47.74
2023-10-25T11:37:42.049Z,46.51
2023-10-25T11:40:27.715Z,47.54
2023-10-25T11:43:13.090Z,47.08
2023-10-25T11:45:58.705Z,47.28
2023-10-25T11:48:44.273Z,46.66
2023-10-25T11:51:29.594Z,46.86
2023-10-25T11:54:18.936Z,46.59
2023-10-25T11:57:04.368Z,46.57
2023-10-25T11:59:49.942Z,46.08
2023-10-25T12:02:35.585Z,46.13
2023-10-25T12:05:20.652Z,46.46
2023-10-25T12:08:06.319Z,46.42
2023-10-25T12:10:52.221Z,46.39
2023-10-25T12:13:38.778Z,46.09
2023-10-25T12:16:24.398Z,46.15
2023-10-25T12:19:09.884Z,46.17
2023-10-25T12:21:55.530Z,46.67
2023-10-25T12:24:41.449Z,46.29
2023-10-25T12:27:27.221Z,46.22
2023-10-25T12:30:12.340Z,46.18
2023-10-25T12:32:57.248Z,45.80
2023-10-25T12:35:42.766Z,46.24
2023-10-25T12:38:28.374Z,45.97
2023-10-25T12:41:13.704Z,46.10
2023-10-25T12:43:59.307Z,45.80
2023-10-25T12:46:44.812Z,45.94
2023-10-25T12:49:30.097Z,45.63
2023-10-25T12:52:15.132Z,45.48
2023-10-25T12:55:00.655Z,45.25
2023-10-25T12:57:46.194Z,45.33
2023-10-25T13:00:32.069Z,44.81
2023-10-25T13:03:17.642Z,45.34
2023-10-25T13:06:02.816Z,45.95
2023-10-25T13:08:48.366Z,45.78
2023-10-25T13:11:36.794Z,46.99
2023-10-25T13:14:22.070Z,47.06
2023-10-25T13:19:55.832Z,46.73
2023-10-25T13:22:41.090Z,47.27
2023-10-25T13:25:26.017Z,47.22
2023-10-25T13:28:11.462Z,46.95
2023-10-25T13:30:57.022Z,47.48
2023-10-25T13:33:42.111Z,47.16
2023-10-25T13:36:27.565Z,47.13
2023-10-25T13:39:12.591Z,46.53
2023-10-25T13:41:58.020Z,46.90
2023-10-25T13:44:43.600Z,46.54
2023-10-25T13:47:29.103Z,46.68
2023-10-25T13:50:14.359Z,46.76
2023-10-25T13:52:59.863Z,47.49
2023-10-25T13:55:44.863Z,46.95
2023-10-25T13:58:34.400Z,47.22
2023-10-25T14:01:21.202Z,46.87
2023-10-25T14:04:07.288Z,47.36
2023-10-25T14:06:53.328Z,46.91
2023-10-25T14:09:39.124Z,47.52
2023-10-25T14:12:24.468Z,46.63
2023-10-25T14:15:10.090Z,47.06
2023-10-25T14:17:55.579Z,47.29
2023-10-25T14:20:40.861Z,46.54
2023-10-25T14:23:26.256Z,46.73
2023-10-25T14:26:11.663Z,47.51
2023-10-25T14:28:56.763Z,47.28
2023-10-25T14:31:42.107Z,47.67
2023-10-25T14:34:27.507Z,47.53
2023-10-25T14:37:12.830Z,47.33
2023-10-25T14:39:58.401Z,47.55
2023-10-25T14:42:43.749Z,48.33
2023-10-25T14:45:29.309Z,48.32
2023-10-25T14:48:15.057Z,47.72
2023-10-25T14:51:00.335Z,47.45
2023-10-25T14:53:45.812Z,48.15
2023-10-25T14:56:31.270Z,48.19
2023-10-25T14:59:17.044Z,48.63
2023-10-25T15:02:02.574Z,48.76
2023-10-25T15:04:48.112Z,48.57
2023-10-25T15:07:33.933Z,48.41
2023-10-25T15:10:19.299Z,48.71
2023-10-25T15:13:04.775Z,48.24
2023-10-25T15:15:50.435Z,48.01
2023-10-25T15:18:36.032Z,47.97
2023-10-25T15:21:22.020Z,47.87
2023-10-25T15:24:07.559Z,48.17
2023-10-25T15:26:52.931Z,48.08
2023-10-25T15:29:38.628Z,48.80
2023-10-25T15:32:24.099Z,48.71
2023-10-25T15:35:09.618Z,48.74
2023-10-25T15:40:40.764Z,48.47
2023-10-25T15:43:26.029Z,47.85
2023-10-25T15:46:11.857Z,47.98
2023-10-25T15:48:57.315Z,48.30
2023-10-25T15:51:42.731Z,48.52
2023-10-25T15:54:28.252Z,48.61
2023-10-25T15:57:13.653Z,48.84
2023-10-25T15:59:59.157Z,48.99
2023-10-25T16:02:44.768Z,48.67
2023-10-25T16:05:30.419Z,48.53
2023-10-25T16:08:15.783Z,49.24
2023-10-25T16:11:01.405Z,48.92
2023-10-25T16:13:46.906Z,48.85
2023-10-25T16:16:32.681Z,48.94
2023-10-25T16:19:18.188Z,48.65
2023-10-25T16:22:03.801Z,48.38
2023-10-25T16:24:49.406Z,48.81
2023-10-25T16:27:34.829Z,48.66
2023-10-25T16:30:20.243Z,48.74
2023-10-25T16:33:05.941Z,48.93
2023-10-25T16:35:51.349Z,49.01
2023-10-25T16:38:36.936Z,49.31
2023-10-25T16:41:22.288Z,49.66
2023-10-25T16:44:07.956Z,49.86
2023-10-25T16:46:53.412Z,49.98
2023-10-25T16:49:38.906Z,49.84
2023-10-25T16:52:24.521Z,50.79
2023-10-25T16:55:09.965Z,50.98
2023-10-25T16:57:55.552Z,50.84
2023-10-25T17:00:41.072Z,51.47
2023-10-25T17:03:26.654Z,51.46
2023-10-25T17:06:12.152Z,51.37
2023-10-25T17:08:57.970Z,51.23
2023-10-25T17:11:43.785Z,51.04
2023-10-25T17:14:29.243Z,50.59
2023-10-25T17:17:14.459Z,50.30
2023-10-25T17:22:45.338Z,49.43
2023-10-25T17:25:31.004Z,49.82
2023-10-25T17:28:16.564Z,49.53
2023-10-25T17:31:03.360Z,49.80
2023-10-25T17:33:49.010Z,49.17
2023-10-25T17:36:34.407Z,49.12
2023-10-25T17:39:20.077Z,49.35
2023-10-25T17:42:05.439Z,49.13
2023-10-25T17:44:50.836Z,49.54
2023-10-25T17:47:36.317Z,49.69
2023-10-25T17:50:21.660Z,49.06
2023-10-25T17:53:07.267Z,49.19
2023-10-25T17:55:52.677Z,49.59
2023-10-25T17:58:38.239Z,49.98
2023-10-25T18:01:23.793Z,50.21
2023-10-25T18:04:09.463Z,49.88
2023-10-25T18:07:07.555Z,50.19
2023-10-25T18:09:53.931Z,49.93
2023-10-25T18:12:39.495Z,49.90
2023-10-25T18:15:24.953Z,50.08
2023-10-25T18:18:13.318Z,50.16
2023-10-25T18:20:58.960Z,50.36
2023-10-25T18:23:44.602Z,49.46
2023-10-25T18:26:30.035Z,49.22
2023-10-25T18:29:15.549Z,49.45
2023-10-25T18:32:21.899Z,50.91
2023-10-25T18:35:06.456Z,52.24
2023-10-25T18:37:52.253Z,52.62
2023-10-25T18:40:37.678Z,53.34
2023-10-25T18:43:23.323Z,53.27
2023-10-25T18:46:08.344Z,52.32
2023-10-25T18:48:53.782Z,52.85
2023-10-25T18:51:39.214Z,53.03
2023-10-25T18:54:24.644Z,52.90
2023-10-25T18:57:10.234Z,52.72
2023-10-25T18:59:55.642Z,52.84
2023-10-25T19:02:41.184Z,52.22
2023-10-25T19:06:25.932Z,52.16
2023-10-25T19:08:37.936Z,51.96
2023-10-25T19:11:24.041Z,51.54
2023-10-25T19:14:09.593Z,51.53
2023-10-25T19:16:55.066Z,51.35
2023-10-25T19:19:48.664Z,50.91
2023-10-25T19:22:38.122Z,51.11
2023-10-25T19:25:23.642Z,50.67
2023-10-25T19:28:09.332Z,50.93
2023-10-25T19:30:54.686Z,50.50
2023-10-25T19:33:40.169Z,49.99
2023-10-25T19:36:25.594Z,50.25
2023-10-25T19:39:11.085Z,50.13
2023-10-25T19:41:56.625Z,48.95
2023-10-25T19:44:42.194Z,48.85
2023-10-25T19:47:27.686Z,49.91
2023-10-25T19:50:13.097Z,49.04
2023-10-25T19:52:58.043Z,48.86
2023-10-25T19:55:43.438Z,49.85
2023-10-25T19:58:28.871Z,48.97
2023-10-25T20:01:14.273Z,47.51
2023-10-25T20:03:59.728Z,49.11
2023-10-25T20:06:45.180Z,47.96
2023-10-25T20:09:30.673Z,48.76
2023-10-25T20:12:16.228Z,48.58
2023-10-25T20:15:01.766Z,47.61
2023-10-25T20:17:47.205Z,48.28
2023-10-25T20:20:32.686Z,49.06
2023-10-25T20:23:17.924Z,48.95
2023-10-25T20:26:05.432Z,49.34
2023-10-25T20:28:51.138Z,48.99
2023-10-25T20:31:36.681Z,49.69
2023-10-25T20:34:22.184Z,50.21
2023-10-25T20:37:07.621Z,50.03
2023-10-25T20:39:52.561Z,49.93
2023-10-25T20:42:38.261Z,50.28
2023-10-25T20:45:23.752Z,50.15
2023-10-25T20:48:09.314Z,50.59
2023-10-25T20:50:54.615Z,50.46
2023-10-25T20:53:43.840Z,51.84
2023-10-25T20:56:29.024Z,51.95
2023-10-25T20:59:14.761Z,54.15
2023-10-25T21:02:01.020Z,55.56
2023-10-25T21:04:46.623Z,55.01
2023-10-25T21:07:31.911Z,54.56
2023-10-25T21:10:17.362Z,55.15
2023-10-25T21:13:02.746Z,55.20
2023-10-25T21:15:49.250Z,54.90
2023-10-25T21:18:42.645Z,55.35
2023-10-25T21:21:43.684Z,55.18
2023-10-25T21:24:39.407Z,55.44
2023-10-25T21:27:42.497Z,55.36
2023-10-25T21:30:50.008Z,55.08
2023-10-25T21:33:36.230Z,55.04
2023-10-25T21:36:25.662Z,54.93
2023-10-25T21:39:12.249Z,54.98
2023-10-25T21:42:00.203Z,55.09
2023-10-25T21:44:46.679Z,55.43
2023-10-25T21:47:42.146Z,55.11
2023-10-25T21:50:28.897Z,54.94
2023-10-25T21:53:22.504Z,55.00
2023-10-25T21:56:24.488Z,55.22
2023-10-25T21:59:51.944Z,54.73
2023-10-25T22:02:21.697Z,54.82
2023-10-25T22:05:12.521Z,54.80
2023-10-25T22:08:00.706Z,54.92
2023-10-25T22:10:45.985Z,54.83
2023-10-25T22:13:30.990Z,54.49
2023-10-25T22:16:16.429Z,54.84
2023-10-25T22:19:02.039Z,54.53
2023-10-25T22:21:47.544Z,54.56
2023-10-25T22:24:32.857Z,54.71
2023-10-25T22:27:18.520Z,54.47
2023-10-25T22:30:03.933Z,54.74
2023-10-25T22:32:49.624Z,54.47
2023-10-25T22:35:34.857Z,54.57
2023-10-25T22:38:20.275Z,54.36
2023-10-25T22:41:13.017Z,54.48
2023-10-25T22:44:02.124Z,54.15
2023-10-25T22:46:47.004Z,54.54
2023-10-25T22:49:32.536Z,54.56
2023-10-25T22:52:18.052Z,54.61
2023-10-25T22:55:03.385Z,54.58
2023-10-25T22:57:48.873Z,54.34
2023-10-25T23:00:34.286Z,53.99
2023-10-25T23:03:19.309Z,54.61
2023-10-25T23:06:04.705Z,54.89
2023-10-25T23:08:49.982Z,54.33
2023-10-25T23:11:36.147Z,54.69
2023-10-25T23:14:21.469Z,54.54
2023-10-25T23:17:07.210Z,54.11
2023-10-25T23:19:52.632Z,54.34
2023-10-25T23:22:37.560Z,54.24
2023-10-25T23:25:23.149Z,54.37
2023-10-25T23:28:08.696Z,54.32
2023-10-25T23:30:54.457Z,54.54
2023-10-25T23:33:39.781Z,54.34
2023-10-25T23:36:25.147Z,54.20
2023-10-25T23:39:10.795Z,54.19
2023-10-25T23:41:56.212Z,54.18
2023-10-25T23:44:41.343Z,54.09
2023-10-25T23:47:26.690Z,54.49
2023-10-25T23:50:12.159Z,54.24
2023-10-25T23:52:57.502Z,54.25
2023-10-25T23:55:42.961Z,53.90
2023-10-25T23:58:28.025Z,54.21
